Weather at Boundary Bay Airport

Public forecast

Using degrees Celsius for public forecast. Weather courtesy of forecast.io.

Closest aviation weather report (METAR) to Boundary Bay Airport

Closest report is Vancouver International Airport, 9.9 nm (18.3 km) NW. Retrieved 2020/09/25 15:00 UTC (32 minutes ago):

CYVR 251500Z 14021KT 4SM -RA BR SCT012 BKN044 OVC074 13/12 A2956 RMK SC3SC4AC1 SLP010 DENSITY ALT 300FT

Closest aviation forecast (TAF) to Boundary Bay Airport

Closest forecast is Vancouver International Airport, 9.9 nm (18.3 km) NW. Retrieved 2020/09/25 15:39 UTC (0 seconds ago):

TAF CYVR 251438Z 2515/2618 13015KT P6SM -RA SCT015 BKN050 TEMPO 2515/2518 15020G30KT 2SM -RA BR BKN015 OVC060 FM251800 22012KT P6SM FEW020 BKN060 TEMPO 2518/2610 P6SM -SHRA FM261000 13008KT P6SM SCT020 BKN040 TEMPO 2610/2618 P6SM -SHRA BKN020 RMK NXT FCST BY 251800Z